sensor_id;sensor_type;location;lat;lon;timestamp;P1;durP1;ratioP1;P2;durP2;ratioP2
64199;SDS011;50516;52.272;5.136;2022-12-05T00:00:10;39.80;;;23.15;;
64199;SDS011;50516;52.272;5.136;2022-12-05T00:02:36;40.08;;;22.02;;
64199;SDS011;50516;52.272;5.136;2022-12-05T00:05:02;39.85;;;22.98;;
64199;SDS011;50516;52.272;5.136;2022-12-05T00:07:28;40.85;;;21.50;;
64199;SDS011;50516;52.272;5.136;2022-12-05T00:09:53;36.83;;;21.10;;
64199;SDS011;50516;52.272;5.136;2022-12-05T00:12:18;41.83;;;21.95;;
64199;SDS011;50516;52.272;5.136;2022-12-05T00:14:44;38.90;;;21.35;;
64199;SDS011;50516;52.272;5.136;2022-12-05T00:17:09;34.65;;;20.27;;
64199;SDS011;50516;52.272;5.136;2022-12-05T00:19:34;38.33;;;21.42;;
64199;SDS011;50516;52.272;5.136;2022-12-05T00:22:00;36.95;;;21.27;;
64199;SDS011;50516;52.272;5.136;2022-12-05T00:24:25;40.58;;;23.13;;
64199;SDS011;50516;52.272;5.136;2022-12-05T00:26:51;34.45;;;19.60;;
64199;SDS011;50516;52.272;5.136;2022-12-05T00:29:16;37.03;;;21.55;;
64199;SDS011;50516;52.272;5.136;2022-12-05T00:31:42;36.35;;;21.50;;
64199;SDS011;50516;52.272;5.136;2022-12-05T00:34:07;46.67;;;23.35;;
64199;SDS011;50516;52.272;5.136;2022-12-05T00:36:33;41.88;;;21.45;;
64199;SDS011;50516;52.272;5.136;2022-12-05T00:39:00;39.33;;;21.88;;
64199;SDS011;50516;52.272;5.136;2022-12-05T00:41:30;39.53;;;21.98;;
64199;SDS011;50516;52.272;5.136;2022-12-05T00:43:57;41.92;;;22.02;;
64199;SDS011;50516;52.272;5.136;2022-12-05T00:46:25;40.92;;;22.50;;
64199;SDS011;50516;52.272;5.136;2022-12-05T00:48:54;38.25;;;22.20;;
64199;SDS011;50516;52.272;5.136;2022-12-05T00:51:22;39.13;;;22.10;;
64199;SDS011;50516;52.272;5.136;2022-12-05T00:53:54;40.95;;;23.20;;
64199;SDS011;50516;52.272;5.136;2022-12-05T00:56:23;39.50;;;21.83;;
64199;SDS011;50516;52.272;5.136;2022-12-05T00:58:50;37.22;;;21.63;;
64199;SDS011;50516;52.272;5.136;2022-12-05T01:01:21;40.05;;;22.42;;
64199;SDS011;50516;52.272;5.136;2022-12-05T01:03:54;40.88;;;22.40;;
64199;SDS011;50516;52.272;5.136;2022-12-05T01:06:21;37.97;;;22.17;;
64199;SDS011;50516;52.272;5.136;2022-12-05T01:08:47;39.28;;;23.50;;
64199;SDS011;50516;52.272;5.136;2022-12-05T01:11:13;40.75;;;22.55;;
64199;SDS011;50516;52.272;5.136;2022-12-05T01:13:41;41.22;;;23.20;;
64199;SDS011;50516;52.272;5.136;2022-12-05T01:16:12;43.67;;;23.15;;
64199;SDS011;50516;52.272;5.136;2022-12-05T01:18:39;39.17;;;21.65;;
64199;SDS011;50516;52.272;5.136;2022-12-05T01:21:04;38.72;;;22.88;;
64199;SDS011;50516;52.272;5.136;2022-12-05T01:23:30;41.75;;;22.25;;
64199;SDS011;50516;52.272;5.136;2022-12-05T01:25:55;38.22;;;23.15;;
64199;SDS011;50516;52.272;5.136;2022-12-05T01:28:20;39.03;;;23.13;;
64199;SDS011;50516;52.272;5.136;2022-12-05T01:30:47;44.42;;;24.13;;
64199;SDS011;50516;52.272;5.136;2022-12-05T01:33:14;38.30;;;21.33;;
64199;SDS011;50516;52.272;5.136;2022-12-05T01:35:40;40.25;;;23.08;;
64199;SDS011;50516;52.272;5.136;2022-12-05T01:38:06;38.83;;;22.30;;
64199;SDS011;50516;52.272;5.136;2022-12-05T01:40:32;39.45;;;22.67;;
64199;SDS011;50516;52.272;5.136;2022-12-05T01:43:00;35.97;;;21.30;;
64199;SDS011;50516;52.272;5.136;2022-12-05T01:45:30;39.67;;;23.02;;
64199;SDS011;50516;52.272;5.136;2022-12-05T01:47:57;41.20;;;22.45;;
64199;SDS011;50516;52.272;5.136;2022-12-05T01:50:26;41.85;;;22.92;;
64199;SDS011;50516;52.272;5.136;2022-12-05T01:52:52;42.47;;;23.60;;
64199;SDS011;50516;52.272;5.136;2022-12-05T01:55:17;38.58;;;22.95;;
64199;SDS011;50516;52.272;5.136;2022-12-05T01:57:44;39.13;;;22.65;;
64199;SDS011;50516;52.272;5.136;2022-12-05T02:00:14;45.08;;;23.85;;
64199;SDS011;50516;52.272;5.136;2022-12-05T02:02:44;34.10;;;20.60;;
64199;SDS011;50516;52.272;5.136;2022-12-05T02:05:32;39.03;;;21.92;;
64199;SDS011;50516;52.272;5.136;2022-12-05T02:08:00;45.30;;;24.35;;
64199;SDS011;50516;52.272;5.136;2022-12-05T02:10:27;40.83;;;21.40;;
64199;SDS011;50516;52.272;5.136;2022-12-05T02:12:58;39.83;;;23.38;;
64199;SDS011;50516;52.272;5.136;2022-12-05T02:15:42;42.25;;;22.88;;
64199;SDS011;50516;52.272;5.136;2022-12-05T02:18:17;42.38;;;23.15;;
64199;SDS011;50516;52.272;5.136;2022-12-05T02:30:17;39.00;;;22.05;;
64199;SDS011;50516;52.272;5.136;2022-12-05T02:35:36;40.75;;;22.75;;
64199;SDS011;50516;52.272;5.136;2022-12-05T02:43:53;39.22;;;20.70;;
64199;SDS011;50516;52.272;5.136;2022-12-05T02:46:25;41.13;;;21.65;;
64199;SDS011;50516;52.272;5.136;2022-12-05T02:48:54;38.30;;;21.80;;
64199;SDS011;50516;52.272;5.136;2022-12-05T02:51:24;37.45;;;21.95;;
64199;SDS011;50516;52.272;5.136;2022-12-05T02:53:55;35.90;;;20.75;;
64199;SDS011;50516;52.272;5.136;2022-12-05T02:56:25;36.75;;;20.33;;
64199;SDS011;50516;52.272;5.136;2022-12-05T02:58:54;37.50;;;18.55;;
64199;SDS011;50516;52.272;5.136;2022-12-05T03:01:20;34.95;;;20.52;;
64199;SDS011;50516;52.272;5.136;2022-12-05T03:03:48;32.22;;;18.58;;
64199;SDS011;50516;52.272;5.136;2022-12-05T03:06:15;31.52;;;17.02;;
64199;SDS011;50516;52.272;5.136;2022-12-05T03:08:49;32.08;;;18.65;;
64199;SDS011;50516;52.272;5.136;2022-12-05T03:11:20;32.47;;;20.02;;
64199;SDS011;50516;52.272;5.136;2022-12-05T03:13:48;37.35;;;19.45;;
64199;SDS011;50516;52.272;5.136;2022-12-05T03:16:22;31.98;;;18.40;;
64199;SDS011;50516;52.272;5.136;2022-12-05T03:18:57;34.35;;;19.48;;
64199;SDS011;50516;52.272;5.136;2022-12-05T03:24:07;31.83;;;18.83;;
64199;SDS011;50516;52.272;5.136;2022-12-05T03:29:30;36.42;;;19.13;;
64199;SDS011;50516;52.272;5.136;2022-12-05T03:34:44;36.40;;;18.58;;
64199;SDS011;50516;52.272;5.136;2022-12-05T03:37:20;33.10;;;18.33;;
64199;SDS011;50516;52.272;5.136;2022-12-05T03:40:00;29.70;;;18.15;;
64199;SDS011;50516;52.272;5.136;2022-12-05T03:42:34;34.25;;;18.58;;
64199;SDS011;50516;52.272;5.136;2022-12-05T03:45:05;29.63;;;17.98;;
64199;SDS011;50516;52.272;5.136;2022-12-05T03:47:46;34.90;;;18.40;;
64199;SDS011;50516;52.272;5.136;2022-12-05T03:50:24;31.77;;;19.47;;
64199;SDS011;50516;52.272;5.136;2022-12-05T03:53:03;29.17;;;16.83;;
64199;SDS011;50516;52.272;5.136;2022-12-05T03:55:34;29.52;;;17.35;;
64199;SDS011;50516;52.272;5.136;2022-12-05T03:58:06;29.15;;;17.33;;
64199;SDS011;50516;52.272;5.136;2022-12-05T04:00:36;34.33;;;20.23;;
64199;SDS011;50516;52.272;5.136;2022-12-05T04:05:41;29.52;;;16.67;;
64199;SDS011;50516;52.272;5.136;2022-12-05T04:10:42;33.20;;;17.70;;
64199;SDS011;50516;52.272;5.136;2022-12-05T04:16:16;35.28;;;18.92;;
64199;SDS011;50516;52.272;5.136;2022-12-05T04:19:08;31.00;;;18.73;;
64199;SDS011;50516;52.272;5.136;2022-12-05T04:24:16;31.42;;;18.38;;
64199;SDS011;50516;52.272;5.136;2022-12-05T04:27:09;31.63;;;17.95;;
64199;SDS011;50516;52.272;5.136;2022-12-05T04:29:39;31.30;;;18.55;;
64199;SDS011;50516;52.272;5.136;2022-12-05T04:32:14;30.92;;;18.08;;
64199;SDS011;50516;52.272;5.136;2022-12-05T04:34:42;33.45;;;19.58;;
64199;SDS011;50516;52.272;5.136;2022-12-05T04:37:12;34.13;;;19.80;;
64199;SDS011;50516;52.272;5.136;2022-12-05T04:39:45;29.40;;;18.20;;
64199;SDS011;50516;52.272;5.136;2022-12-05T04:42:17;31.23;;;18.45;;
64199;SDS011;50516;52.272;5.136;2022-12-05T04:44:47;30.10;;;18.70;;
64199;SDS011;50516;52.272;5.136;2022-12-05T04:47:17;34.13;;;19.88;;
64199;SDS011;50516;52.272;5.136;2022-12-05T04:49:45;33.42;;;19.20;;
64199;SDS011;50516;52.272;5.136;2022-12-05T04:52:12;34.90;;;19.85;;
64199;SDS011;50516;52.272;5.136;2022-12-05T04:54:42;33.28;;;19.00;;
64199;SDS011;50516;52.272;5.136;2022-12-05T04:57:15;33.92;;;19.17;;
64199;SDS011;50516;52.272;5.136;2022-12-05T04:59:44;34.05;;;19.58;;
64199;SDS011;50516;52.272;5.136;2022-12-05T05:02:10;34.95;;;19.67;;
64199;SDS011;50516;52.272;5.136;2022-12-05T05:04:48;31.13;;;18.80;;
64199;SDS011;50516;52.272;5.136;2022-12-05T05:07:16;36.67;;;19.45;;
64199;SDS011;50516;52.272;5.136;2022-12-05T05:09:42;35.53;;;21.23;;
64199;SDS011;50516;52.272;5.136;2022-12-05T05:12:08;35.50;;;20.80;;
64199;SDS011;50516;52.272;5.136;2022-12-05T05:14:34;39.53;;;21.13;;
64199;SDS011;50516;52.272;5.136;2022-12-05T05:17:00;35.38;;;21.38;;
64199;SDS011;50516;52.272;5.136;2022-12-05T05:19:25;39.67;;;20.48;;
64199;SDS011;50516;52.272;5.136;2022-12-05T05:21:51;36.30;;;20.58;;
64199;SDS011;50516;52.272;5.136;2022-12-05T05:24:17;37.10;;;21.55;;
64199;SDS011;50516;52.272;5.136;2022-12-05T05:26:44;38.90;;;20.73;;
64199;SDS011;50516;52.272;5.136;2022-12-05T05:29:10;35.63;;;19.60;;
64199;SDS011;50516;52.272;5.136;2022-12-05T05:31:37;33.45;;;19.73;;
64199;SDS011;50516;52.272;5.136;2022-12-05T05:34:03;41.25;;;21.67;;
64199;SDS011;50516;52.272;5.136;2022-12-05T05:36:29;35.75;;;21.02;;
64199;SDS011;50516;52.272;5.136;2022-12-05T05:38:56;35.45;;;20.95;;
64199;SDS011;50516;52.272;5.136;2022-12-05T05:41:24;36.15;;;20.13;;
64199;SDS011;50516;52.272;5.136;2022-12-05T05:43:51;35.75;;;19.52;;
64199;SDS011;50516;52.272;5.136;2022-12-05T05:46:18;37.10;;;21.17;;
64199;SDS011;50516;52.272;5.136;2022-12-05T05:48:45;33.20;;;19.73;;
64199;SDS011;50516;52.272;5.136;2022-12-05T05:51:11;42.38;;;21.15;;
64199;SDS011;50516;52.272;5.136;2022-12-05T05:53:38;35.03;;;19.17;;
64199;SDS011;50516;52.272;5.136;2022-12-05T05:56:04;34.05;;;21.25;;
64199;SDS011;50516;52.272;5.136;2022-12-05T05:58:31;37.20;;;22.23;;
64199;SDS011;50516;52.272;5.136;2022-12-05T06:03:29;33.40;;;19.67;;
64199;SDS011;50516;52.272;5.136;2022-12-05T06:05:55;35.10;;;19.23;;
64199;SDS011;50516;52.272;5.136;2022-12-05T06:08:21;33.53;;;19.90;;
64199;SDS011;50516;52.272;5.136;2022-12-05T06:10:47;31.70;;;17.92;;
64199;SDS011;50516;52.272;5.136;2022-12-05T06:13:12;35.25;;;17.98;;
64199;SDS011;50516;52.272;5.136;2022-12-05T06:15:37;39.13;;;20.80;;
64199;SDS011;50516;52.272;5.136;2022-12-05T06:18:03;35.40;;;20.73;;
64199;SDS011;50516;52.272;5.136;2022-12-05T06:20:28;36.53;;;19.10;;
64199;SDS011;50516;52.272;5.136;2022-12-05T06:22:53;38.38;;;19.33;;
64199;SDS011;50516;52.272;5.136;2022-12-05T06:25:18;34.70;;;19.23;;
64199;SDS011;50516;52.272;5.136;2022-12-05T06:27:44;35.75;;;19.55;;
64199;SDS011;50516;52.272;5.136;2022-12-05T06:30:09;34.45;;;19.90;;
64199;SDS011;50516;52.272;5.136;2022-12-05T06:32:35;28.08;;;17.05;;
64199;SDS011;50516;52.272;5.136;2022-12-05T06:35:00;32.00;;;17.52;;
64199;SDS011;50516;52.272;5.136;2022-12-05T06:37:34;29.70;;;16.90;;
64199;SDS011;50516;52.272;5.136;2022-12-05T06:40:00;31.27;;;17.52;;
64199;SDS011;50516;52.272;5.136;2022-12-05T06:42:25;30.10;;;17.58;;
64199;SDS011;50516;52.272;5.136;2022-12-05T06:44:50;26.63;;;15.43;;
64199;SDS011;50516;52.272;5.136;2022-12-05T06:47:16;28.35;;;16.67;;
64199;SDS011;50516;52.272;5.136;2022-12-05T06:49:41;28.75;;;16.65;;
64199;SDS011;50516;52.272;5.136;2022-12-05T06:52:06;23.05;;;14.57;;
64199;SDS011;50516;52.272;5.136;2022-12-05T06:54:32;25.75;;;15.20;;
64199;SDS011;50516;52.272;5.136;2022-12-05T06:56:57;25.13;;;16.20;;
64199;SDS011;50516;52.272;5.136;2022-12-05T06:59:22;22.90;;;15.45;;
64199;SDS011;50516;52.272;5.136;2022-12-05T07:01:48;26.58;;;17.00;;
64199;SDS011;50516;52.272;5.136;2022-12-05T07:04:20;24.98;;;15.77;;
64199;SDS011;50516;52.272;5.136;2022-12-05T07:06:50;24.42;;;13.98;;
64199;SDS011;50516;52.272;5.136;2022-12-05T07:09:24;23.73;;;15.07;;
64199;SDS011;50516;52.272;5.136;2022-12-05T07:12:10;21.63;;;14.15;;
64199;SDS011;50516;52.272;5.136;2022-12-05T07:14:36;20.33;;;13.60;;
64199;SDS011;50516;52.272;5.136;2022-12-05T07:17:01;20.60;;;13.40;;
64199;SDS011;50516;52.272;5.136;2022-12-05T07:19:26;20.90;;;13.23;;
64199;SDS011;50516;52.272;5.136;2022-12-05T07:21:52;21.30;;;13.93;;
64199;SDS011;50516;52.272;5.136;2022-12-05T07:24:17;19.17;;;12.88;;
64199;SDS011;50516;52.272;5.136;2022-12-05T07:26:43;19.05;;;12.95;;
64199;SDS011;50516;52.272;5.136;2022-12-05T07:29:08;20.00;;;12.90;;
64199;SDS011;50516;52.272;5.136;2022-12-05T07:31:34;23.23;;;13.13;;
64199;SDS011;50516;52.272;5.136;2022-12-05T07:34:00;19.77;;;12.65;;
64199;SDS011;50516;52.272;5.136;2022-12-05T07:36:26;19.60;;;13.57;;
64199;SDS011;50516;52.272;5.136;2022-12-05T07:38:55;18.50;;;12.30;;
64199;SDS011;50516;52.272;5.136;2022-12-05T07:41:23;22.65;;;13.18;;
64199;SDS011;50516;52.272;5.136;2022-12-05T07:43:54;17.30;;;10.77;;
64199;SDS011;50516;52.272;5.136;2022-12-05T07:46:21;18.77;;;11.75;;
64199;SDS011;50516;52.272;5.136;2022-12-05T07:48:48;18.75;;;12.02;;
64199;SDS011;50516;52.272;5.136;2022-12-05T07:51:13;17.08;;;11.10;;
64199;SDS011;50516;52.272;5.136;2022-12-05T07:53:39;15.38;;;10.60;;
64199;SDS011;50516;52.272;5.136;2022-12-05T07:56:06;16.45;;;10.68;;
64199;SDS011;50516;52.272;5.136;2022-12-05T07:58:33;17.25;;;11.25;;
64199;SDS011;50516;52.272;5.136;2022-12-05T08:03:55;14.77;;;9.43;;
64199;SDS011;50516;52.272;5.136;2022-12-05T08:06:23;12.52;;;8.48;;
64199;SDS011;50516;52.272;5.136;2022-12-05T08:08:51;12.23;;;9.25;;
64199;SDS011;50516;52.272;5.136;2022-12-05T08:11:18;13.75;;;9.13;;
64199;SDS011;50516;52.272;5.136;2022-12-05T08:13:48;13.63;;;8.65;;
64199;SDS011;50516;52.272;5.136;2022-12-05T08:16:15;13.35;;;9.30;;
64199;SDS011;50516;52.272;5.136;2022-12-05T08:18:43;11.88;;;8.52;;
64199;SDS011;50516;52.272;5.136;2022-12-05T08:21:09;11.65;;;8.65;;
64199;SDS011;50516;52.272;5.136;2022-12-05T08:23:40;10.35;;;7.30;;
64199;SDS011;50516;52.272;5.136;2022-12-05T08:26:07;11.45;;;8.15;;
64199;SDS011;50516;52.272;5.136;2022-12-05T08:28:34;10.70;;;8.07;;
64199;SDS011;50516;52.272;5.136;2022-12-05T08:33:34;11.75;;;7.88;;
64199;SDS011;50516;52.272;5.136;2022-12-05T08:36:00;10.90;;;7.75;;
64199;SDS011;50516;52.272;5.136;2022-12-05T08:38:27;9.23;;;7.03;;
64199;SDS011;50516;52.272;5.136;2022-12-05T08:40:53;9.57;;;7.57;;
64199;SDS011;50516;52.272;5.136;2022-12-05T08:43:18;9.73;;;7.20;;
64199;SDS011;50516;52.272;5.136;2022-12-05T08:45:50;9.63;;;6.82;;
64199;SDS011;50516;52.272;5.136;2022-12-05T08:48:16;9.27;;;7.00;;
64199;SDS011;50516;52.272;5.136;2022-12-05T08:50:42;7.95;;;5.90;;
64199;SDS011;50516;52.272;5.136;2022-12-05T08:53:07;9.40;;;6.97;;
64199;SDS011;50516;52.272;5.136;2022-12-05T08:55:36;10.40;;;7.10;;
64199;SDS011;50516;52.272;5.136;2022-12-05T08:58:02;8.80;;;6.38;;
64199;SDS011;50516;52.272;5.136;2022-12-05T09:00:28;8.38;;;6.22;;
64199;SDS011;50516;52.272;5.136;2022-12-05T09:02:53;8.48;;;6.32;;
64199;SDS011;50516;52.272;5.136;2022-12-05T09:05:19;8.95;;;6.65;;
64199;SDS011;50516;52.272;5.136;2022-12-05T09:07:44;10.57;;;7.38;;
64199;SDS011;50516;52.272;5.136;2022-12-05T09:10:10;9.05;;;6.82;;
64199;SDS011;50516;52.272;5.136;2022-12-05T09:12:36;10.88;;;6.55;;
64199;SDS011;50516;52.272;5.136;2022-12-05T09:15:02;11.90;;;6.70;;
64199;SDS011;50516;52.272;5.136;2022-12-05T09:17:30;9.80;;;6.72;;
64199;SDS011;50516;52.272;5.136;2022-12-05T09:19:55;9.43;;;6.70;;
64199;SDS011;50516;52.272;5.136;2022-12-05T09:22:20;9.00;;;6.93;;
64199;SDS011;50516;52.272;5.136;2022-12-05T09:24:46;10.23;;;6.53;;
64199;SDS011;50516;52.272;5.136;2022-12-05T09:27:12;9.32;;;6.55;;
64199;SDS011;50516;52.272;5.136;2022-12-05T09:29:37;8.65;;;6.80;;
64199;SDS011;50516;52.272;5.136;2022-12-05T09:32:03;8.75;;;6.00;;
64199;SDS011;50516;52.272;5.136;2022-12-05T09:34:28;8.98;;;6.43;;
64199;SDS011;50516;52.272;5.136;2022-12-05T09:36:55;7.90;;;6.18;;
64199;SDS011;50516;52.272;5.136;2022-12-05T09:39:21;10.55;;;6.82;;
64199;SDS011;50516;52.272;5.136;2022-12-05T09:49:53;8.02;;;5.80;;
64199;SDS011;50516;52.272;5.136;2022-12-05T09:52:36;8.02;;;5.63;;
64199;SDS011;50516;52.272;5.136;2022-12-05T09:55:09;9.50;;;5.65;;
64199;SDS011;50516;52.272;5.136;2022-12-05T09:57:39;8.40;;;5.20;;
64199;SDS011;50516;52.272;5.136;2022-12-05T10:00:10;7.55;;;5.20;;
64199;SDS011;50516;52.272;5.136;2022-12-05T10:02:57;9.75;;;5.97;;
64199;SDS011;50516;52.272;5.136;2022-12-05T10:08:37;8.30;;;5.78;;
64199;SDS011;50516;52.272;5.136;2022-12-05T10:11:17;9.55;;;6.00;;
64199;SDS011;50516;52.272;5.136;2022-12-05T10:14:02;8.93;;;5.38;;
64199;SDS011;50516;52.272;5.136;2022-12-05T10:16:55;8.93;;;6.03;;
64199;SDS011;50516;52.272;5.136;2022-12-05T10:19:29;7.85;;;5.65;;
64199;SDS011;50516;52.272;5.136;2022-12-05T10:22:18;12.20;;;6.53;;
64199;SDS011;50516;52.272;5.136;2022-12-05T10:25:09;9.88;;;5.60;;
64199;SDS011;50516;52.272;5.136;2022-12-05T10:27:43;7.13;;;5.30;;
64199;SDS011;50516;52.272;5.136;2022-12-05T10:32:54;15.13;;;6.32;;
64199;SDS011;50516;52.272;5.136;2022-12-05T10:38:43;8.43;;;5.70;;
64199;SDS011;50516;52.272;5.136;2022-12-05T10:40:52;11.80;;;5.22;;
64199;SDS011;50516;52.272;5.136;2022-12-05T10:43:39;8.30;;;5.35;;
64199;SDS011;50516;52.272;5.136;2022-12-05T10:48:34;13.15;;;5.95;;
64199;SDS011;50516;52.272;5.136;2022-12-05T10:51:01;6.55;;;5.10;;
64199;SDS011;50516;52.272;5.136;2022-12-05T10:53:27;8.07;;;5.85;;
64199;SDS011;50516;52.272;5.136;2022-12-05T10:56:00;9.77;;;6.60;;
64199;SDS011;50516;52.272;5.136;2022-12-05T10:58:26;10.98;;;6.97;;
64199;SDS011;50516;52.272;5.136;2022-12-05T11:00:57;8.82;;;6.10;;
64199;SDS011;50516;52.272;5.136;2022-12-05T11:03:36;10.45;;;7.43;;
64199;SDS011;50516;52.272;5.136;2022-12-05T11:08:56;11.18;;;7.45;;
64199;SDS011;50516;52.272;5.136;2022-12-05T11:11:40;9.23;;;6.68;;
64199;SDS011;50516;52.272;5.136;2022-12-05T11:14:22;8.65;;;6.18;;
64199;SDS011;50516;52.272;5.136;2022-12-05T11:16:54;10.32;;;6.25;;
64199;SDS011;50516;52.272;5.136;2022-12-05T11:21:46;11.35;;;7.80;;
64199;SDS011;50516;52.272;5.136;2022-12-05T11:24:26;12.25;;;6.85;;
64199;SDS011;50516;52.272;5.136;2022-12-05T11:26:56;12.02;;;7.75;;
64199;SDS011;50516;52.272;5.136;2022-12-05T11:32:00;9.85;;;6.82;;
64199;SDS011;50516;52.272;5.136;2022-12-05T11:34:46;11.18;;;7.78;;
64199;SDS011;50516;52.272;5.136;2022-12-05T11:37:21;8.95;;;5.75;;
64199;SDS011;50516;52.272;5.136;2022-12-05T11:39:50;10.45;;;6.35;;
64199;SDS011;50516;52.272;5.136;2022-12-05T11:48:07;10.38;;;6.20;;
64199;SDS011;50516;52.272;5.136;2022-12-05T11:56:08;15.15;;;6.95;;
64199;SDS011;50516;52.272;5.136;2022-12-05T12:05:04;12.57;;;7.63;;
64199;SDS011;50516;52.272;5.136;2022-12-05T12:10:48;13.43;;;7.53;;
64199;SDS011;50516;52.272;5.136;2022-12-05T12:16:22;16.95;;;8.60;;
64199;SDS011;50516;52.272;5.136;2022-12-05T12:19:09;12.13;;;7.60;;
64199;SDS011;50516;52.272;5.136;2022-12-05T12:21:58;12.18;;;7.07;;
64199;SDS011;50516;52.272;5.136;2022-12-05T12:52:19;13.85;;;7.53;;
64199;SDS011;50516;52.272;5.136;2022-12-05T12:54:56;13.93;;;7.80;;
64199;SDS011;50516;52.272;5.136;2022-12-05T12:57:31;15.35;;;8.20;;
64199;SDS011;50516;52.272;5.136;2022-12-05T13:02:37;12.88;;;6.85;;
64199;SDS011;50516;52.272;5.136;2022-12-05T13:08:04;14.40;;;7.00;;
64199;SDS011;50516;52.272;5.136;2022-12-05T13:10:40;13.73;;;7.65;;
64199;SDS011;50516;52.272;5.136;2022-12-05T13:13:13;13.93;;;7.82;;
64199;SDS011;50516;52.272;5.136;2022-12-05T13:15:43;14.68;;;7.63;;
64199;SDS011;50516;52.272;5.136;2022-12-05T13:18:16;12.57;;;7.65;;
64199;SDS011;50516;52.272;5.136;2022-12-05T13:20:42;15.55;;;7.25;;
64199;SDS011;50516;52.272;5.136;2022-12-05T13:23:11;13.90;;;6.55;;
64199;SDS011;50516;52.272;5.136;2022-12-05T13:25:40;14.07;;;7.65;;
64199;SDS011;50516;52.272;5.136;2022-12-05T13:28:15;11.80;;;6.97;;
64199;SDS011;50516;52.272;5.136;2022-12-05T13:30:47;15.35;;;7.57;;
64199;SDS011;50516;52.272;5.136;2022-12-05T13:33:22;19.80;;;10.13;;
64199;SDS011;50516;52.272;5.136;2022-12-05T13:35:54;14.88;;;8.75;;
64199;SDS011;50516;52.272;5.136;2022-12-05T13:38:39;13.90;;;8.10;;
64199;SDS011;50516;52.272;5.136;2022-12-05T13:41:40;19.42;;;9.15;;
64199;SDS011;50516;52.272;5.136;2022-12-05T13:44:34;14.52;;;7.55;;
64199;SDS011;50516;52.272;5.136;2022-12-05T13:47:05;12.93;;;7.63;;
64199;SDS011;50516;52.272;5.136;2022-12-05T13:49:44;21.00;;;8.70;;
64199;SDS011;50516;52.272;5.136;2022-12-05T13:52:14;14.00;;;7.65;;
64199;SDS011;50516;52.272;5.136;2022-12-05T13:54:52;12.60;;;6.72;;
64199;SDS011;50516;52.272;5.136;2022-12-05T13:57:44;14.13;;;7.75;;
64199;SDS011;50516;52.272;5.136;2022-12-05T14:07:43;14.70;;;8.55;;
64199;SDS011;50516;52.272;5.136;2022-12-05T14:10:21;12.02;;;7.93;;
64199;SDS011;50516;52.272;5.136;2022-12-05T14:12:56;14.10;;;7.95;;
64199;SDS011;50516;52.272;5.136;2022-12-05T14:18:17;14.35;;;7.88;;
64199;SDS011;50516;52.272;5.136;2022-12-05T14:28:51;15.57;;;8.05;;
64199;SDS011;50516;52.272;5.136;2022-12-05T14:31:32;12.95;;;8.18;;
64199;SDS011;50516;52.272;5.136;2022-12-05T14:37:49;17.27;;;8.63;;
64199;SDS011;50516;52.272;5.136;2022-12-05T14:39:43;11.63;;;7.63;;
64199;SDS011;50516;52.272;5.136;2022-12-05T14:44:57;17.67;;;8.43;;
64199;SDS011;50516;52.272;5.136;2022-12-05T14:47:28;13.45;;;8.20;;
64199;SDS011;50516;52.272;5.136;2022-12-05T14:52:26;16.90;;;9.27;;
64199;SDS011;50516;52.272;5.136;2022-12-05T14:54:56;13.88;;;7.88;;
64199;SDS011;50516;52.272;5.136;2022-12-05T14:57:34;14.18;;;7.13;;
64199;SDS011;50516;52.272;5.136;2022-12-05T15:00:13;13.55;;;7.63;;
64199;SDS011;50516;52.272;5.136;2022-12-05T15:02:46;16.50;;;8.55;;
64199;SDS011;50516;52.272;5.136;2022-12-05T15:07:49;13.80;;;7.88;;
64199;SDS011;50516;52.272;5.136;2022-12-05T15:15:18;15.35;;;7.35;;
64199;SDS011;50516;52.272;5.136;2022-12-05T15:18:46;10.55;;;6.20;;
64199;SDS011;50516;52.272;5.136;2022-12-05T15:21:09;12.02;;;6.95;;
64199;SDS011;50516;52.272;5.136;2022-12-05T15:23:47;15.32;;;7.47;;
64199;SDS011;50516;52.272;5.136;2022-12-05T15:26:34;15.07;;;6.78;;
64199;SDS011;50516;52.272;5.136;2022-12-05T15:29:06;16.10;;;8.07;;
64199;SDS011;50516;52.272;5.136;2022-12-05T15:32:17;14.02;;;7.30;;
64199;SDS011;50516;52.272;5.136;2022-12-05T15:34:46;12.45;;;7.88;;
64199;SDS011;50516;52.272;5.136;2022-12-05T15:42:18;9.43;;;6.30;;
64199;SDS011;50516;52.272;5.136;2022-12-05T15:44:45;11.80;;;6.95;;
64199;SDS011;50516;52.272;5.136;2022-12-05T15:47:18;11.13;;;6.25;;
64199;SDS011;50516;52.272;5.136;2022-12-05T15:49:45;16.50;;;7.35;;
64199;SDS011;50516;52.272;5.136;2022-12-05T15:54:43;11.10;;;6.43;;
64199;SDS011;50516;52.272;5.136;2022-12-05T15:57:11;20.40;;;11.35;;
64199;SDS011;50516;52.272;5.136;2022-12-05T15:59:43;12.73;;;7.13;;
64199;SDS011;50516;52.272;5.136;2022-12-05T16:02:14;18.48;;;8.60;;
64199;SDS011;50516;52.272;5.136;2022-12-05T16:04:50;19.33;;;7.40;;
64199;SDS011;50516;52.272;5.136;2022-12-05T16:07:21;15.77;;;7.75;;
64199;SDS011;50516;52.272;5.136;2022-12-05T16:09:49;14.15;;;6.70;;
64199;SDS011;50516;52.272;5.136;2022-12-05T16:15:08;13.65;;;7.35;;
64199;SDS011;50516;52.272;5.136;2022-12-05T16:17:57;15.30;;;6.95;;
64199;SDS011;50516;52.272;5.136;2022-12-05T16:20:33;17.27;;;7.18;;
64199;SDS011;50516;52.272;5.136;2022-12-05T16:23:01;12.45;;;6.63;;
64199;SDS011;50516;52.272;5.136;2022-12-05T16:25:45;12.82;;;6.60;;
64199;SDS011;50516;52.272;5.136;2022-12-05T16:28:14;11.75;;;6.53;;
64199;SDS011;50516;52.272;5.136;2022-12-05T16:30:55;14.52;;;6.60;;
64199;SDS011;50516;52.272;5.136;2022-12-05T16:33:23;11.68;;;6.00;;
64199;SDS011;50516;52.272;5.136;2022-12-05T16:35:50;11.15;;;5.55;;
64199;SDS011;50516;52.272;5.136;2022-12-05T16:43:18;10.43;;;5.82;;
64199;SDS011;50516;52.272;5.136;2022-12-05T16:45:45;13.43;;;5.85;;
64199;SDS011;50516;52.272;5.136;2022-12-05T16:48:22;12.88;;;5.68;;
64199;SDS011;50516;52.272;5.136;2022-12-05T16:51:35;15.55;;;5.78;;
64199;SDS011;50516;52.272;5.136;2022-12-05T16:53:44;17.20;;;6.63;;
64199;SDS011;50516;52.272;5.136;2022-12-05T16:56:16;13.52;;;6.50;;
64199;SDS011;50516;52.272;5.136;2022-12-05T16:58:45;11.65;;;5.60;;
64199;SDS011;50516;52.272;5.136;2022-12-05T17:01:15;9.88;;;5.85;;
64199;SDS011;50516;52.272;5.136;2022-12-05T17:03:45;11.73;;;5.18;;
64199;SDS011;50516;52.272;5.136;2022-12-05T17:06:11;10.23;;;5.93;;
64199;SDS011;50516;52.272;5.136;2022-12-05T17:08:38;15.73;;;6.53;;
64199;SDS011;50516;52.272;5.136;2022-12-05T17:11:04;12.63;;;5.53;;
64199;SDS011;50516;52.272;5.136;2022-12-05T17:13:30;9.68;;;5.03;;
64199;SDS011;50516;52.272;5.136;2022-12-05T17:15:57;6.82;;;4.50;;
64199;SDS011;50516;52.272;5.136;2022-12-05T17:18:22;10.52;;;4.95;;
64199;SDS011;50516;52.272;5.136;2022-12-05T17:20:49;7.43;;;4.28;;
64199;SDS011;50516;52.272;5.136;2022-12-05T17:23:18;7.60;;;4.40;;
64199;SDS011;50516;52.272;5.136;2022-12-05T17:25:54;11.27;;;5.82;;
64199;SDS011;50516;52.272;5.136;2022-12-05T17:28:21;9.50;;;5.18;;
64199;SDS011;50516;52.272;5.136;2022-12-05T17:30:47;11.23;;;4.80;;
64199;SDS011;50516;52.272;5.136;2022-12-05T17:33:14;8.85;;;4.47;;
64199;SDS011;50516;52.272;5.136;2022-12-05T17:35:41;6.65;;;4.70;;
64199;SDS011;50516;52.272;5.136;2022-12-05T17:38:07;13.13;;;5.40;;
64199;SDS011;50516;52.272;5.136;2022-12-05T17:40:32;9.70;;;5.05;;
64199;SDS011;50516;52.272;5.136;2022-12-05T17:42:58;9.45;;;5.35;;
64199;SDS011;50516;52.272;5.136;2022-12-05T17:45:24;9.23;;;4.72;;
64199;SDS011;50516;52.272;5.136;2022-12-05T17:47:49;8.32;;;5.05;;